createdAt,value
2018-05-03T00:01:45.470Z,76.20
2018-05-03T00:04:15.067Z,76.20
2018-05-03T00:06:44.635Z,76.70
2018-05-03T00:09:15.351Z,75.60
2018-05-03T00:11:46.697Z,75.50
2018-05-03T00:14:16.590Z,75.40
2018-05-03T00:16:47.498Z,75.70
2018-05-03T00:19:17.000Z,75.00
2018-05-03T00:21:46.912Z,75.10
2018-05-03T00:24:16.561Z,75.00
2018-05-03T00:26:46.320Z,75.20
2018-05-03T00:29:17.026Z,75.00
2018-05-03T00:31:47.242Z,74.80
2018-05-03T00:34:17.062Z,74.90
2018-05-03T00:36:46.881Z,75.20
2018-05-03T00:39:16.689Z,75.10
2018-05-03T00:41:47.382Z,75.40
2018-05-03T00:44:18.056Z,75.30
2018-05-03T00:46:47.591Z,75.30
2018-05-03T00:49:17.802Z,75.40
2018-05-03T00:51:48.826Z,76.20
2018-05-03T00:54:36.114Z,76.10
2018-05-03T00:57:06.366Z,76.00
2018-05-03T00:59:35.981Z,75.60
2018-05-03T01:02:05.738Z,75.50
2018-05-03T01:04:35.606Z,75.10
2018-05-03T01:07:05.625Z,75.00
2018-05-03T01:09:36.521Z,75.60
2018-05-03T01:12:06.581Z,74.90
2018-05-03T01:14:37.961Z,74.70
2018-05-03T01:17:07.851Z,74.90
2018-05-03T01:19:38.407Z,74.60
2018-05-03T01:22:08.315Z,74.50
2018-05-03T01:24:37.956Z,74.30
2018-05-03T01:27:07.614Z,74.30
2018-05-03T01:29:37.897Z,74.30
2018-05-03T01:32:07.556Z,74.10
2018-05-03T01:34:44.293Z,74.40
2018-05-03T01:37:13.883Z,74.20
2018-05-03T01:39:44.226Z,74.20
2018-05-03T01:42:16.398Z,74.20
2018-05-03T01:44:46.277Z,74.20
2018-05-03T01:47:15.949Z,73.70
2018-05-03T01:49:46.409Z,74.00
2018-05-03T01:52:16.937Z,73.90
2018-05-03T01:54:47.486Z,73.90
2018-05-03T01:57:17.102Z,73.90
2018-05-03T01:59:48.374Z,73.90
2018-05-03T02:02:17.856Z,73.80
2018-05-03T02:04:47.607Z,73.00
2018-05-03T02:07:17.203Z,72.80
2018-05-03T02:09:48.315Z,73.00
2018-05-03T02:12:17.964Z,72.30
2018-05-03T02:14:47.543Z,72.40
2018-05-03T02:17:17.302Z,72.40
2018-05-03T02:19:46.881Z,72.30
2018-05-03T02:22:17.176Z,72.30
2018-05-03T02:24:47.042Z,72.60
2018-05-03T02:27:16.848Z,72.70
2018-05-03T02:29:47.481Z,72.90
2018-05-03T02:32:17.155Z,73.20
2018-05-03T02:34:48.275Z,73.70
2018-05-03T02:37:18.011Z,74.00
2018-05-03T02:39:47.813Z,74.20
2018-05-03T02:42:17.995Z,74.20
2018-05-03T02:44:48.007Z,74.50
2018-05-03T02:47:17.857Z,74.40
2018-05-03T02:49:48.337Z,74.30
2018-05-03T02:52:18.117Z,74.30
2018-05-03T02:54:47.585Z,74.20
2018-05-03T02:57:34.965Z,74.00
2018-05-03T03:00:33.028Z,74.20
2018-05-03T03:03:28.989Z,74.90
2018-05-03T03:06:17.257Z,74.70
2018-05-03T03:23:23.696Z,74.60
2018-05-03T03:40:05.259Z,73.70
2018-05-03T03:43:05.300Z,74.00
2018-05-03T03:45:35.697Z,72.70
2018-05-03T03:48:05.677Z,72.70
2018-05-03T03:50:35.466Z,73.50
2018-05-03T03:53:05.747Z,72.60
2018-05-03T03:55:35.499Z,72.20
2018-05-03T03:58:05.332Z,72.70
2018-05-03T04:00:36.050Z,72.10
2018-05-03T04:03:05.785Z,72.20
2018-05-03T04:05:35.999Z,72.20
2018-05-03T04:08:05.904Z,71.10
2018-05-03T04:10:35.477Z,71.50
2018-05-03T04:13:05.622Z,71.60
2018-05-03T04:15:35.168Z,72.20
2018-05-03T04:18:23.901Z,74.10
2018-05-03T04:21:16.619Z,74.00
2018-05-03T04:24:14.691Z,74.90
2018-05-03T04:26:44.425Z,74.80
2018-05-03T04:29:14.136Z,74.70
2018-05-03T04:31:43.740Z,74.90
2018-05-03T04:34:16.012Z,75.10
2018-05-03T04:36:46.213Z,75.10
2018-05-03T04:39:16.433Z,75.50
2018-05-03T04:41:45.918Z,75.00
2018-05-03T04:44:15.629Z,74.80
2018-05-03T04:46:46.041Z,74.80
2018-05-03T04:49:22.704Z,74.70
2018-05-03T04:51:53.310Z,74.60
2018-05-03T04:54:22.894Z,74.40
2018-05-03T04:56:52.360Z,74.20
2018-05-03T04:59:21.913Z,74.60
2018-05-03T05:01:51.431Z,74.10
2018-05-03T05:04:20.992Z,74.10
2018-05-03T05:06:50.518Z,74.50
2018-05-03T05:09:20.254Z,75.00
2018-05-03T05:11:50.073Z,74.60
2018-05-03T05:14:19.561Z,74.70
2018-05-03T05:16:49.207Z,75.00
2018-05-03T05:19:18.899Z,75.20
2018-05-03T05:21:54.146Z,75.40
2018-05-03T05:24:23.695Z,75.10
2018-05-03T05:26:55.096Z,75.20
2018-05-03T05:29:25.415Z,75.10
2018-05-03T05:31:54.884Z,74.90
2018-05-03T05:34:24.359Z,73.90
2018-05-03T05:36:53.901Z,74.30
2018-05-03T05:39:23.494Z,74.80
2018-05-03T05:41:53.045Z,75.30
2018-05-03T05:44:22.773Z,74.80
2018-05-03T05:46:52.359Z,74.60
2018-05-03T05:49:21.826Z,73.90
2018-05-03T05:51:51.692Z,73.50
2018-05-03T05:54:21.211Z,72.80
2018-05-03T05:56:51.921Z,73.20
2018-05-03T05:59:21.491Z,73.10
2018-05-03T06:01:51.336Z,73.30
2018-05-03T06:04:21.427Z,72.00
2018-05-03T06:06:51.904Z,72.70
2018-05-03T06:09:21.480Z,72.70
2018-05-03T06:11:51.216Z,72.20
2018-05-03T06:14:29.315Z,70.50
2018-05-03T06:17:04.475Z,70.50
2018-05-03T06:19:39.246Z,70.40
2018-05-03T06:22:09.491Z,67.90
2018-05-03T06:24:39.633Z,67.90
2018-05-03T06:27:27.291Z,67.20
2018-05-03T06:29:59.165Z,70.20
2018-05-03T06:32:31.089Z,67.80
2018-05-03T06:35:00.705Z,67.80
2018-05-03T06:37:30.823Z,67.20
2018-05-03T06:40:00.714Z,67.10
2018-05-03T06:42:30.288Z,67.40
2018-05-03T06:45:00.460Z,68.70
2018-05-03T06:47:31.097Z,71.10
2018-05-03T06:50:00.681Z,71.10
2018-05-03T06:52:30.388Z,74.20
2018-05-03T06:55:00.039Z,73.40
2018-05-03T06:57:29.491Z,73.40
2018-05-03T06:59:59.743Z,73.60
2018-05-03T07:02:29.279Z,74.10
2018-05-03T07:05:00.329Z,76.50
2018-05-03T07:07:30.621Z,76.50
2018-05-03T07:10:00.623Z,76.50
2018-05-03T07:12:30.894Z,78.20
2018-05-03T07:15:00.792Z,78.90
2018-05-03T07:17:30.497Z,80.30
2018-05-03T07:20:00.795Z,81.30
2018-05-03T07:22:31.894Z,80.00
2018-05-03T07:25:01.714Z,78.90
2018-05-03T07:27:32.092Z,74.80
2018-05-03T07:30:01.710Z,74.70
2018-05-03T07:32:31.415Z,75.20
2018-05-03T07:35:02.024Z,68.20
2018-05-03T07:37:31.675Z,68.20
2018-05-03T07:40:01.471Z,69.30
2018-05-03T07:42:31.184Z,68.10
2018-05-03T07:45:00.997Z,68.80
2018-05-03T07:47:30.543Z,67.40
2018-05-03T07:50:01.112Z,70.70
2018-05-03T07:52:30.740Z,70.60
2018-05-03T07:55:00.660Z,68.30
2018-05-03T07:57:30.693Z,67.60
2018-05-03T08:00:01.545Z,67.50
2018-05-03T08:02:31.591Z,69.10
2018-05-03T08:05:01.780Z,68.00
2018-05-03T08:07:31.674Z,68.80
2018-05-03T08:10:01.357Z,69.30
2018-05-03T08:12:30.850Z,69.50
2018-05-03T08:15:00.333Z,70.00
2018-05-03T08:17:30.922Z,69.50
2018-05-03T08:20:00.401Z,68.20
2018-05-03T08:22:30.848Z,69.30
2018-05-03T08:25:00.977Z,68.60
2018-05-03T08:27:30.756Z,70.00
2018-05-03T08:30:01.530Z,68.70
2018-05-03T08:32:32.900Z,70.20
2018-05-03T08:35:02.879Z,70.10
2018-05-03T08:37:32.865Z,70.30
2018-05-03T08:40:03.225Z,69.90
2018-05-03T08:42:32.977Z,69.90
2018-05-03T08:45:03.358Z,69.60
2018-05-03T08:47:33.056Z,69.50
2018-05-03T08:50:02.758Z,68.70
2018-05-03T08:52:32.226Z,69.60
2018-05-03T08:55:01.701Z,69.20
2018-05-03T08:57:31.267Z,69.50
2018-05-03T09:00:01.835Z,70.20
2018-05-03T09:02:31.798Z,70.20
2018-05-03T09:05:02.495Z,70.90
2018-05-03T09:07:32.292Z,70.80
2018-05-03T09:10:01.885Z,72.40
2018-05-03T09:12:31.409Z,72.60
2018-05-03T09:15:01.080Z,72.00
2018-05-03T09:17:31.538Z,71.80
2018-05-03T09:20:01.160Z,71.70
2018-05-03T09:22:31.789Z,70.80
2018-05-03T09:25:01.480Z,71.80
2018-05-03T09:27:31.424Z,70.90
2018-05-03T09:30:00.912Z,71.90
2018-05-03T09:32:40.987Z,71.60
2018-05-03T09:35:12.916Z,70.00
2018-05-03T09:37:44.014Z,70.90
2018-05-03T09:40:16.721Z,70.30
2018-05-03T09:42:48.397Z,70.30
2018-05-03T09:45:18.355Z,70.80
2018-05-03T09:47:47.960Z,70.30
2018-05-03T09:50:19.757Z,71.70
2018-05-03T09:52:50.711Z,71.90
2018-05-03T09:55:21.096Z,72.50
2018-05-03T09:57:50.612Z,72.50
2018-05-03T10:00:20.926Z,74.10
2018-05-03T10:02:51.372Z,75.90
2018-05-03T10:05:21.257Z,75.80
2018-05-03T10:07:50.773Z,76.80
2018-05-03T10:10:20.436Z,78.10
2018-05-03T10:12:49.898Z,78.30
2018-05-03T10:15:20.507Z,79.70
2018-05-03T10:17:50.089Z,79.60
2018-05-03T10:20:20.651Z,79.50
2018-05-03T10:22:51.738Z,80.30
2018-05-03T10:25:21.301Z,81.10
2018-05-03T10:27:50.883Z,80.90
2018-05-03T10:30:20.929Z,81.50
2018-05-03T10:32:50.538Z,82.30
2018-05-03T10:35:20.213Z,81.60
2018-05-03T10:37:49.949Z,83.20
2018-05-03T10:40:20.241Z,82.70
2018-05-03T10:42:50.517Z,83.80
2018-05-03T10:45:20.217Z,83.80
2018-05-03T10:47:49.733Z,84.20
2018-05-03T10:50:19.532Z,84.40
2018-05-03T10:52:48.988Z,85.20
2018-05-03T10:55:19.242Z,83.90
2018-05-03T10:57:48.752Z,83.80
2018-05-03T11:00:20.664Z,83.90
2018-05-03T11:02:50.206Z,83.80
2018-05-03T11:05:19.953Z,84.80
2018-05-03T11:07:49.646Z,85.40
2018-05-03T11:10:20.376Z,85.40
2018-05-03T11:12:49.958Z,85.80
2018-05-03T11:15:20.241Z,86.50
2018-05-03T11:17:49.841Z,86.40
2018-05-03T11:20:19.808Z,87.30
2018-05-03T11:22:49.552Z,87.20
2018-05-03T11:25:19.263Z,87.20
2018-05-03T11:27:48.760Z,86.90
2018-05-03T11:30:20.049Z,86.40
2018-05-03T11:32:51.272Z,86.20
2018-05-03T11:35:21.179Z,86.20
2018-05-03T11:37:50.670Z,86.00
2018-05-03T11:40:20.308Z,86.00
2018-05-03T11:42:51.142Z,86.00
2018-05-03T11:45:28.684Z,86.20
2018-05-03T11:47:59.050Z,85.30
2018-05-03T11:50:28.548Z,85.20
2018-05-03T11:52:58.154Z,87.20
2018-05-03T11:55:28.074Z,87.40
2018-05-03T11:57:58.123Z,87.20
2018-05-03T12:00:28.152Z,86.80
2018-05-03T12:02:57.621Z,87.00
2018-05-03T12:05:27.125Z,86.00
2018-05-03T12:07:56.704Z,86.90
2018-05-03T12:10:26.194Z,87.10
2018-05-03T12:12:56.773Z,88.00
2018-05-03T12:15:26.584Z,87.90
2018-05-03T12:17:56.138Z,87.80
2018-05-03T12:20:25.641Z,85.70
2018-05-03T12:22:56.039Z,86.40
2018-05-03T12:25:25.554Z,86.40
2018-05-03T12:27:55.398Z,85.70
2018-05-03T12:30:26.744Z,84.30
2018-05-03T12:32:58.124Z,84.60
2018-05-03T12:35:28.070Z,84.60
2018-05-03T12:37:58.292Z,85.10
2018-05-03T12:40:28.141Z,85.60
2018-05-03T12:42:58.516Z,86.90
2018-05-03T12:45:28.376Z,86.90
2018-05-03T12:47:58.039Z,84.00
2018-05-03T12:50:27.577Z,85.40
2018-05-03T12:52:57.379Z,85.80
2018-05-03T12:55:26.949Z,84.70
2018-05-03T12:57:57.173Z,85.20
2018-05-03T13:00:28.278Z,85.80
2018-05-03T13:02:57.930Z,87.10
2018-05-03T13:05:29.149Z,86.80
2018-05-03T13:08:07.745Z,87.20
2018-05-03T13:10:37.926Z,86.10
2018-05-03T13:13:07.474Z,86.10
2018-05-03T13:15:37.494Z,86.00
2018-05-03T13:18:07.159Z,85.20
2018-05-03T13:20:36.797Z,84.90
2018-05-03T13:23:06.432Z,84.60
2018-05-03T13:29:02.015Z,80.60
2018-05-03T13:34:35.387Z,77.80
2018-05-03T13:37:06.289Z,78.40
2018-05-03T13:39:37.604Z,78.30
2018-05-03T13:42:07.174Z,76.90
2018-05-03T13:44:36.782Z,76.20
2018-05-03T13:47:08.203Z,76.00
2018-05-03T13:49:38.063Z,76.10
2018-05-03T13:52:07.538Z,77.50
2018-05-03T13:54:37.445Z,75.90
2018-05-03T13:57:22.680Z,75.30
2018-05-03T13:59:52.288Z,73.80
2018-05-03T14:02:21.785Z,72.90
2018-05-03T14:04:51.434Z,74.10
2018-05-03T14:07:21.153Z,71.10
2018-05-03T14:09:51.333Z,70.20
2018-05-03T14:12:20.840Z,70.30
2018-05-03T14:14:50.492Z,70.20
2018-05-03T14:17:19.981Z,67.50
2018-05-03T14:19:49.607Z,68.80
2018-05-03T14:22:19.120Z,69.60
2018-05-03T14:24:49.516Z,69.40
2018-05-03T14:27:19.197Z,69.30
2018-05-03T14:29:49.142Z,69.90
2018-05-03T14:32:18.870Z,71.10
2018-05-03T14:34:49.209Z,69.70
2018-05-03T14:37:19.924Z,69.50
2018-05-03T14:39:49.892Z,69.40
2018-05-03T14:42:19.800Z,69.90
2018-05-03T14:44:50.060Z,70.70
2018-05-03T14:47:19.733Z,70.70
2018-05-03T14:49:49.361Z,70.80
2018-05-03T14:52:19.382Z,67.10
2018-05-03T14:54:49.937Z,67.80
2018-05-03T14:57:19.577Z,67.80
2018-05-03T14:59:49.117Z,67.70
2018-05-03T15:02:19.631Z,68.60
2018-05-03T15:04:49.407Z,68.70
2018-05-03T15:07:19.188Z,68.40
2018-05-03T15:09:48.849Z,69.80
2018-05-03T15:12:18.409Z,69.00
2018-05-03T15:14:48.247Z,69.50
2018-05-03T15:17:17.824Z,70.70
2018-05-03T15:19:47.308Z,69.30
2018-05-03T15:22:17.679Z,70.30
2018-05-03T15:24:48.489Z,70.20
2018-05-03T15:27:19.421Z,68.60
2018-05-03T15:29:49.808Z,68.40
2018-05-03T15:32:21.421Z,70.00
2018-05-03T15:34:51.069Z,69.90
2018-05-03T15:37:27.344Z,68.90
2018-05-03T15:39:57.849Z,69.00
2018-05-03T15:42:27.365Z,69.00
2018-05-03T15:44:57.060Z,68.90
2018-05-03T15:47:27.078Z,69.50
2018-05-03T15:49:57.253Z,68.20
2018-05-03T15:52:26.730Z,68.40
2018-05-03T15:54:56.920Z,67.80
2018-05-03T15:57:26.741Z,67.10
2018-05-03T15:59:56.260Z,66.50
2018-05-03T16:02:26.598Z,67.00
2018-05-03T16:04:56.905Z,67.60
2018-05-03T16:07:26.364Z,67.60
2018-05-03T16:09:55.827Z,66.10
2018-05-03T16:12:25.308Z,66.60
2018-05-03T16:14:55.467Z,67.60
2018-05-03T16:17:24.961Z,66.30
2018-05-03T16:19:54.440Z,66.80
2018-05-03T16:22:24.363Z,66.50
2018-05-03T16:24:54.069Z,67.20
2018-05-03T16:27:23.681Z,67.30
2018-05-03T16:29:53.207Z,68.00
2018-05-03T16:32:22.722Z,67.20
2018-05-03T16:34:52.214Z,67.60
2018-05-03T16:37:21.784Z,68.00
2018-05-03T16:39:51.270Z,67.40
2018-05-03T16:42:20.771Z,68.00
2018-05-03T16:44:51.031Z,68.60
2018-05-03T16:47:20.646Z,68.60
2018-05-03T16:49:50.194Z,68.00
2018-05-03T16:52:19.940Z,67.60
2018-05-03T16:54:50.165Z,69.00
2018-05-03T16:57:19.669Z,69.10
2018-05-03T16:59:49.343Z,71.50
2018-05-03T17:02:19.621Z,72.20
2018-05-03T17:04:49.223Z,72.10
2018-05-03T17:07:18.801Z,75.20
2018-05-03T17:09:49.245Z,78.50
2018-05-03T17:12:18.882Z,78.50
2018-05-03T17:14:48.592Z,80.30
2018-05-03T17:17:20.305Z,82.30
2018-05-03T17:19:51.439Z,83.80
2018-05-03T17:22:21.921Z,84.80
2018-05-03T17:24:51.612Z,84.70
2018-05-03T17:27:21.290Z,85.70
2018-05-03T17:29:51.511Z,82.70
2018-05-03T17:32:21.885Z,81.40
2018-05-03T17:34:51.372Z,81.30
2018-05-03T17:37:20.894Z,78.50
2018-05-03T17:39:50.514Z,80.40
2018-05-03T17:42:20.116Z,82.70
2018-05-03T17:44:49.832Z,82.20
2018-05-03T17:47:19.321Z,82.80
2018-05-03T17:49:49.052Z,81.60
2018-05-03T17:52:18.607Z,81.30
2018-05-03T17:54:49.085Z,79.50
2018-05-03T17:57:19.315Z,79.50
2018-05-03T17:59:50.245Z,80.20
2018-05-03T18:02:19.881Z,80.20
2018-05-03T18:04:50.379Z,78.60
2018-05-03T18:07:19.971Z,78.40
2018-05-03T18:09:49.761Z,80.10
2018-05-03T18:12:19.416Z,81.40
2018-05-03T18:14:49.142Z,76.00
2018-05-03T18:17:20.266Z,79.70
2018-05-03T18:19:49.822Z,79.60
2018-05-03T18:22:20.315Z,84.90
2018-05-03T18:24:49.968Z,84.90
2018-05-03T18:27:20.241Z,86.00
2018-05-03T18:29:50.399Z,86.00
2018-05-03T18:32:21.099Z,86.10
2018-05-03T18:34:50.623Z,85.50
2018-05-03T18:37:22.106Z,85.30
2018-05-03T18:39:51.824Z,85.30
2018-05-03T18:42:22.257Z,85.20
2018-05-03T18:44:51.907Z,84.50
2018-05-03T18:47:21.729Z,84.20
2018-05-03T18:49:51.425Z,84.30
2018-05-03T18:52:21.243Z,83.70
2018-05-03T18:54:51.024Z,78.10
2018-05-03T18:57:25.647Z,77.90
2018-05-03T18:59:58.356Z,77.80
2018-05-03T19:02:28.019Z,75.50
2018-05-03T19:04:57.577Z,76.80
2018-05-03T19:07:28.027Z,78.30
2018-05-03T19:09:57.918Z,78.20
2018-05-03T19:12:30.480Z,78.30
2018-05-03T19:15:01.282Z,79.90
2018-05-03T19:17:30.945Z,79.90
2018-05-03T19:20:00.542Z,80.70
2018-05-03T19:22:30.568Z,81.30
2018-05-03T19:25:00.136Z,81.70
2018-05-03T19:27:30.482Z,82.00
2018-05-03T19:30:02.728Z,81.60
2018-05-03T19:32:33.665Z,82.10
2018-05-03T19:35:04.230Z,82.10
2018-05-03T19:37:34.890Z,82.10
2018-05-03T19:40:05.381Z,81.60
2018-05-03T19:42:35.888Z,81.50
2018-05-03T19:45:13.307Z,81.30
2018-05-03T19:47:56.774Z,79.40
2018-05-03T19:50:27.152Z,79.70
2018-05-03T19:53:29.746Z,79.70
2018-05-03T19:56:07.359Z,80.20
2018-05-03T19:58:41.472Z,79.90
2018-05-03T20:01:11.173Z,79.90
2018-05-03T20:03:41.026Z,79.60
2018-05-03T20:06:11.191Z,80.10
2018-05-03T20:08:49.414Z,78.70
2018-05-03T20:11:19.031Z,79.40
2018-05-03T20:13:49.341Z,79.20
2018-05-03T20:16:19.114Z,79.10
2018-05-03T20:18:49.575Z,79.30
2018-05-03T20:21:19.286Z,79.20
2018-05-03T20:23:49.705Z,79.40
2018-05-03T20:26:20.042Z,79.60
2018-05-03T20:28:50.165Z,79.90
2018-05-03T20:31:20.523Z,80.30
2018-05-03T20:33:50.179Z,79.60
2018-05-03T20:36:20.847Z,80.00
2018-05-03T20:39:00.866Z,79.80
2018-05-03T20:41:36.868Z,79.20
2018-05-03T20:44:06.731Z,78.80
2018-05-03T20:46:57.688Z,78.80
2018-05-03T20:49:28.318Z,79.40
2018-05-03T20:51:58.806Z,79.20
2018-05-03T20:54:29.383Z,79.00
2018-05-03T20:57:00.112Z,79.00
2018-05-03T20:59:30.721Z,77.30
2018-05-03T21:02:00.732Z,77.20
2018-05-03T21:04:31.071Z,77.80
2018-05-03T21:07:01.990Z,77.40
2018-05-03T21:09:39.047Z,77.10
2018-05-03T21:12:08.594Z,75.40
2018-05-03T21:14:38.964Z,75.70
2018-05-03T21:17:09.214Z,75.40
2018-05-03T21:19:40.150Z,76.40
2018-05-03T21:22:10.450Z,76.80
2018-05-03T21:24:48.223Z,76.80
2018-05-03T21:27:18.314Z,77.50
2018-05-03T21:29:47.825Z,77.70
2018-05-03T21:32:17.479Z,77.90
2018-05-03T21:34:48.363Z,78.10
2018-05-03T21:37:46.216Z,77.70
2018-05-03T21:40:19.718Z,77.90
2018-05-03T21:42:49.414Z,77.40
2018-05-03T21:45:18.966Z,77.60
2018-05-03T21:47:48.418Z,77.70
2018-05-03T21:50:20.106Z,77.90
2018-05-03T21:52:50.933Z,78.70
2018-05-03T21:55:21.288Z,79.20
2018-05-03T21:57:50.818Z,79.20
2018-05-03T22:00:20.567Z,80.10
2018-05-03T22:02:50.186Z,80.30
2018-05-03T22:05:30.580Z,81.30
2018-05-03T22:08:02.040Z,81.50
2018-05-03T22:10:31.733Z,81.40
2018-05-03T22:13:01.499Z,81.60
2018-05-03T22:15:31.017Z,82.00
2018-05-03T22:18:01.356Z,82.60
2018-05-03T22:20:31.676Z,82.40
2018-05-03T22:23:02.140Z,82.60
2018-05-03T22:25:31.645Z,82.60
2018-05-03T22:28:01.479Z,82.80
2018-05-03T22:30:34.008Z,83.10
2018-05-03T22:33:03.551Z,83.10
2018-05-03T22:35:33.152Z,83.50
2018-05-03T22:38:02.760Z,83.70
2018-05-03T22:40:32.514Z,83.80
2018-05-03T22:43:02.281Z,84.10
2018-05-03T22:45:33.531Z,84.40
2018-05-03T22:48:03.266Z,84.50
2018-05-03T22:50:32.906Z,84.70
2018-05-03T22:53:02.689Z,84.70
2018-05-03T22:55:41.479Z,84.60
2018-05-03T22:58:11.102Z,84.50
2018-05-03T23:00:40.803Z,84.30
2018-05-03T23:03:11.361Z,84.30
2018-05-03T23:05:41.042Z,84.30
2018-05-03T23:08:11.421Z,84.30
2018-05-03T23:10:41.066Z,84.40
2018-05-03T23:13:10.686Z,84.80
2018-05-03T23:15:40.376Z,85.00
2018-05-03T23:18:09.897Z,85.10
2018-05-03T23:20:48.730Z,85.10
2018-05-03T23:23:18.369Z,85.20
2018-05-03T23:25:47.846Z,85.10
2018-05-03T23:28:17.423Z,85.10
2018-05-03T23:30:49.645Z,85.10
2018-05-03T23:33:19.349Z,85.10
2018-05-03T23:35:56.718Z,84.90
2018-05-03T23:38:37.958Z,84.80
2018-05-03T23:41:07.584Z,84.70
2018-05-03T23:43:38.469Z,84.80
2018-05-03T23:46:09.336Z,84.60
2018-05-03T23:48:39.216Z,84.80
2018-05-03T23:51:08.871Z,84.80
2018-05-03T23:53:39.670Z,85.00
2018-05-03T23:56:09.372Z,84.90
2018-05-03T23:58:39.590Z,85.10
